createdAt,value
2018-04-16T00:29:36.016Z,10.6
2018-04-16T00:59:36.012Z,11.1
2018-04-16T01:14:50.985Z,9.3
2018-04-16T01:34:50.921Z,12.9
2018-04-16T01:49:50.890Z,11.3
2018-04-16T02:25:06.658Z,13
2018-04-16T03:10:20.128Z,14.6
2018-04-16T03:30:20.051Z,14.8
2018-04-16T03:45:20.035Z,16.1
2018-04-16T04:00:19.880Z,15.1
2018-04-16T04:20:36.818Z,16.2
2018-04-16T05:25:51.002Z,16.3
2018-04-16T05:55:51.169Z,15.8
2018-04-16T06:16:06.993Z,16.6
2018-04-16T06:46:07.118Z,18.6
2018-04-16T07:06:21.129Z,28.4
2018-04-16T07:36:23.380Z,13.2
2018-04-16T07:51:36.011Z,13
2018-04-16T08:11:36.069Z,12.3
2018-04-16T08:26:37.954Z,11.8
2018-04-16T08:41:49.650Z,8.7
2018-04-16T09:32:05.555Z,5.6
2018-04-16T09:47:05.629Z,4.9
2018-04-16T10:07:20.408Z,4.6
2018-04-16T10:22:20.396Z,5.1
2018-04-16T10:37:20.411Z,2.6
2018-04-16T10:57:20.242Z,3.6
2018-04-16T11:12:22.165Z,4.8
2018-04-16T11:27:24.736Z,3.8
2018-04-16T11:47:24.866Z,3.1
2018-04-16T12:02:37.843Z,3
2018-04-16T12:32:37.581Z,3.2
2018-04-16T12:52:50.590Z,2.2
2018-04-16T13:22:51.984Z,2.9
2018-04-16T13:43:04.873Z,2.7
2018-04-16T14:13:05.399Z,2.5
2018-04-16T14:28:18.180Z,4
2018-04-16T15:03:30.034Z,3.9
2018-04-16T15:18:29.867Z,2.2
2018-04-16T15:53:45.140Z,4
2018-04-16T16:08:45.123Z,4.8
2018-04-16T16:23:45.168Z,5
2018-04-16T16:43:45.327Z,4.5
2018-04-16T16:58:59.510Z,5.7
2018-04-16T17:49:00.414Z,7.3
2018-04-16T18:04:00.569Z,9.2
2018-04-16T18:24:13.542Z,8.6
2018-04-16T18:39:13.465Z,7.1
2018-04-16T18:54:29.215Z,8.4
2018-04-16T19:29:32.502Z,9.7
2018-04-16T20:19:45.746Z,10.5
2018-04-16T20:34:58.325Z,9.1
2018-04-16T21:25:09.552Z,8.5
2018-04-16T21:40:09.605Z,8
2018-04-16T21:55:25.508Z,10
2018-04-16T22:15:25.661Z,9.7
2018-04-16T22:30:25.762Z,8.3
2018-04-16T23:00:29.231Z,11
2018-04-16T23:20:38.792Z,11.2
2018-04-16T23:50:51.570Z,13.2
